Time;durP1;ratioP1;P1;durP2;ratioP2;P2;SDS_P1;SDS_P2;PMS_P1;PMS_P2;Temp;Humidity;BMP_temperature;BMP_pressure;BME280_temperature;BME280_humidity;BME280_pressure;Samples;Min_cycle;Max_cycle;Signal;HPM_P1;HPM_P2
2023/12/16 00:01:21;;;;;;;5.40;4.73;;;7.50;99.90;;;;;;5115270;28;20438;-44
2023/12/16 00:03:47;;;;;;;5.67;5.07;;;7.50;99.90;;;;;;5115177;28;20496;-41
2023/12/16 00:06:12;;;;;;;5.63;4.70;;;7.50;1.00;;;;;;5114461;28;20229;-43
2023/12/16 00:08:38;;;;;;;6.27;5.67;;;7.50;1.00;;;;;;5114067;28;20589;-42
2023/12/16 00:11:03;;;;;;;6.00;5.33;;;7.50;1.00;;;;;;5116484;28;20541;-41
2023/12/16 00:13:29;;;;;;;6.40;5.37;;;7.40;1.00;;;;;;5116690;28;20782;-42
2023/12/16 00:15:55;;;;;;;7.07;5.30;;;7.40;1.00;;;;;;5116408;28;20192;-42
2023/12/16 00:18:20;;;;;;;6.10;5.50;;;7.40;1.00;;;;;;5117501;28;20247;-42
2023/12/16 00:20:46;;;;;;;6.40;5.37;;;7.40;1.00;;;;;;5117990;28;20175;-40
2023/12/16 00:23:12;;;;;;;6.13;5.27;;;7.30;1.00;;;;;;5100035;28;20198;-41
2023/12/16 00:25:37;;;;;;;6.00;5.30;;;7.30;1.00;;;;;;5083317;28;20425;-42
2023/12/16 00:28:06;;;;;;;6.43;5.70;;;7.30;1.00;;;;;;5118066;28;20183;-45
2023/12/16 00:30:32;;;;;;;6.53;5.83;;;7.40;1.00;;;;;;5118180;28;20183;-42
2023/12/16 00:32:58;;;;;;;6.20;5.60;;;7.30;1.00;;;;;;5117249;28;20886;-44
2023/12/16 00:35:24;;;;;;;9.13;7.30;;;7.20;1.00;;;;;;5116829;28;20186;-42
2023/12/16 00:37:50;;;;;;;6.87;5.47;;;7.20;1.00;;;;;;5099440;28;20425;-41
2023/12/16 00:40:15;;;;;;;6.33;5.73;;;7.20;1.00;;;;;;5099393;28;20164;-41
2023/12/16 00:42:41;;;;;;;9.70;6.93;;;7.10;1.00;;;;;;5116553;28;20419;-42
2023/12/16 00:45:08;;;;;;;6.60;6.00;;;7.10;1.00;;;;;;5096716;28;20198;-42
2023/12/16 00:47:34;;;;;;;6.30;5.70;;;7.10;1.00;;;;;;5114184;28;20179;-43
2023/12/16 00:49:59;;;;;;;8.60;6.50;;;7.10;1.00;;;;;;5115331;28;20420;-43
2023/12/16 00:52:25;;;;;;;5.90;5.30;;;7.00;1.00;;;;;;5081043;28;20242;-42
2023/12/16 00:54:51;;;;;;;7.53;6.20;;;7.00;1.00;;;;;;5116806;28;20301;-41
2023/12/16 00:57:17;;;;;;;6.27;5.77;;;7.00;1.00;;;;;;5117744;28;20568;-41
2023/12/16 00:59:42;;;;;;;7.87;6.13;;;7.00;1.00;;;;;;5100100;28;20469;-44
2023/12/16 01:02:08;;;;;;;6.90;6.20;;;6.90;1.00;;;;;;5117729;28;20417;-41
2023/12/16 01:04:34;;;;;;;7.47;6.70;;;6.90;1.00;;;;;;5118362;28;20197;-42
2023/12/16 01:06:59;;;;;;;6.93;6.20;;;6.90;1.00;;;;;;5117470;28;20195;-43
2023/12/16 01:09:25;;;;;;;8.73;5.37;;;6.90;1.00;;;;;;5116298;28;20226;-40
2023/12/16 01:11:50;;;;;;;8.50;7.40;;;6.90;1.00;;;;;;5116913;28;20218;-42
2023/12/16 01:14:16;;;;;;;7.20;6.50;;;6.90;1.00;;;;;;5116080;28;20184;-41
2023/12/16 01:16:41;;;;;;;9.80;7.47;;;6.90;1.00;;;;;;5115954;28;20186;-44
2023/12/16 01:19:07;;;;;;;7.37;6.60;;;6.90;1.00;;;;;;5114544;28;20255;-40
2023/12/16 01:21:40;;;;;;;8.27;7.10;;;6.90;1.00;;;;;;5114853;28;20190;-41
2023/12/16 01:24:06;;;;;;;7.53;6.77;;;6.90;1.00;;;;;;5096869;28;20328;-39
2023/12/16 01:26:31;;;;;;;7.63;6.93;;;6.90;1.00;;;;;;5115023;28;20536;-41
2023/12/16 01:28:57;;;;;;;7.33;6.63;;;6.90;1.00;;;;;;5115603;28;20266;-41
2023/12/16 01:31:22;;;;;;;7.97;7.13;;;6.90;1.00;;;;;;5116309;28;20172;-42
2023/12/16 01:33:48;;;;;;;7.87;7.07;;;6.90;1.00;;;;;;5115412;28;20317;-43
2023/12/16 01:36:13;;;;;;;8.87;7.80;;;6.90;1.00;;;;;;5115553;28;20209;-42
2023/12/16 01:38:39;;;;;;;8.80;6.93;;;6.80;1.00;;;;;;5116589;28;20545;-42
2023/12/16 01:41:05;;;;;;;8.63;7.70;;;6.80;1.00;;;;;;5117156;28;20191;-43
2023/12/16 01:43:31;;;;;;;7.70;7.00;;;6.80;1.00;;;;;;5116617;28;20314;-41
2023/12/16 01:46:02;;;;;;;8.50;7.33;;;6.80;1.00;;;;;;5117901;28;20274;-44
2023/12/16 01:48:29;;;;;;;8.07;7.20;;;6.70;1.00;;;;;;5117039;28;20230;-41
2023/12/16 01:50:55;;;;;;;8.17;7.37;;;6.70;1.00;;;;;;5116231;28;20819;-41
2023/12/16 01:53:20;;;;;;;7.73;6.93;;;6.70;1.00;;;;;;5116605;28;20534;-40
2023/12/16 01:55:46;;;;;;;6.90;6.30;;;6.60;1.00;;;;;;5098243;28;20875;-42
2023/12/16 01:58:11;;;;;;;7.77;7.03;;;6.60;1.00;;;;;;5099100;28;20465;-43
2023/12/16 02:00:37;;;;;;;4.90;3.60;;;6.50;1.00;;;;;;5116466;28;20244;-42
2023/12/16 02:03:03;;;;;;;5.70;2.50;;;6.90;1.00;;;;;;5116295;28;20180;-44
2023/12/16 02:05:28;;;;;;;4.93;2.50;;;8.40;1.00;;;;;;5118950;28;20506;-45
2023/12/16 02:07:54;;;;;;;4.67;2.70;;;9.80;1.00;;;;;;5120056;28;20183;-44
2023/12/16 02:10:20;;;;;;;5.90;3.70;;;11.10;1.00;;;;;;5120708;28;20807;-41
2023/12/16 02:12:45;;;;;;;6.13;5.53;;;11.10;1.00;;;;;;5120584;28;20224;-43
2023/12/16 02:15:11;;;;;;;7.27;5.80;;;10.60;1.00;;;;;;5118507;28;20183;-41
2023/12/16 02:17:36;;;;;;;6.33;5.73;;;10.10;1.00;;;;;;5118415;28;20168;-41
2023/12/16 02:20:03;;;;;;;7.23;5.53;;;9.60;1.00;;;;;;5117530;28;20449;-42
2023/12/16 02:22:28;;;;;;;7.50;6.47;;;9.20;1.00;;;;;;5119035;28;20187;-42
2023/12/16 02:24:54;;;;;;;7.90;7.10;;;8.80;1.00;;;;;;5117345;28;20882;-40
2023/12/16 02:27:20;;;;;;;9.50;8.50;;;8.50;1.00;;;;;;5118372;28;20202;-40
2023/12/16 02:29:45;;;;;;;8.73;7.87;;;8.20;1.00;;;;;;5117523;28;20424;-42
2023/12/16 02:32:11;;;;;;;7.37;6.67;;;8.00;1.00;;;;;;5118636;28;20528;-44
2023/12/16 02:34:37;;;;;;;8.10;7.07;;;7.80;1.00;;;;;;5119543;28;20561;-40
2023/12/16 02:37:06;;;;;;;7.90;7.17;;;7.60;1.00;;;;;;5119210;28;20186;-41
2023/12/16 02:39:32;;;;;;;7.20;6.50;;;7.50;1.00;;;;;;5119871;28;20187;-45
2023/12/16 02:41:58;;;;;;;6.47;5.90;;;7.40;99.90;;;;;;5118837;28;20436;-40
2023/12/16 02:44:24;;;;;;;6.60;5.90;;;7.30;99.90;;;;;;5118673;28;20409;-41
2023/12/16 02:46:49;;;;;;;7.37;6.50;;;7.30;99.90;;;;;;5119225;28;20280;-43
2023/12/16 02:49:15;;;;;;;6.13;5.53;;;7.20;99.90;;;;;;5119486;28;20323;-49
2023/12/16 02:51:40;;;;;;;6.20;5.60;;;7.10;99.90;;;;;;5119078;28;20465;-39
2023/12/16 02:54:06;;;;;;;6.57;5.73;;;7.10;99.90;;;;;;5119458;28;20263;-41
2023/12/16 02:56:32;;;;;;;6.00;5.50;;;7.10;99.90;;;;;;5119704;28;20184;-42
2023/12/16 02:58:57;;;;;;;6.67;6.07;;;7.00;93.40;;;;;;5118662;28;20179;-41
2023/12/16 03:01:23;;;;;;;7.00;6.07;;;7.00;66.90;;;;;;5118757;28;20180;-41
2023/12/16 03:03:48;;;;;;;7.37;5.97;;;7.00;49.90;;;;;;5118284;28;20188;-42
2023/12/16 03:06:14;;;;;;;5.80;5.20;;;7.00;34.60;;;;;;5118362;28;20184;-41
2023/12/16 03:08:39;;;;;;;6.13;5.53;;;7.00;28.70;;;;;;5119480;28;20560;-44
2023/12/16 03:11:05;;;;;;;5.87;5.20;;;6.90;21.70;;;;;;5101256;28;20328;-40
2023/12/16 03:13:31;;;;;;;6.60;5.37;;;6.90;10.80;;;;;;5118101;28;20215;-42
2023/12/16 03:15:57;;;;;;;6.00;5.40;;;6.90;1.00;;;;;;5118849;28;20180;-41
2023/12/16 03:18:22;;;;;;;5.87;5.30;;;6.90;1.00;;;;;;5117993;28;20488;-41
2023/12/16 03:20:49;;;;;;;6.30;5.63;;;6.90;1.00;;;;;;5116888;28;20518;-42
2023/12/16 03:23:14;;;;;;;5.03;4.60;;;6.90;1.00;;;;;;5117673;28;20233;-42
2023/12/16 03:25:43;;;;;;;5.60;5.10;;;6.90;1.00;;;;;;5117326;28;20433;-40
2023/12/16 03:28:11;;;;;;;5.27;4.77;;;6.90;1.00;;;;;;5117226;28;20188;-42
2023/12/16 03:30:40;;;;;;;7.50;5.23;;;6.80;1.00;;;;;;5117495;28;20440;-41
2023/12/16 03:33:09;;;;;;;5.50;5.00;;;6.80;1.00;;;;;;5116431;28;20461;-42
2023/12/16 03:35:34;;;;;;;5.83;5.23;;;6.80;1.00;;;;;;5098526;28;20418;-42
2023/12/16 03:38:00;;;;;;;6.80;5.00;;;6.80;1.00;;;;;;5115648;28;20744;-43
2023/12/16 03:40:26;;;;;;;5.80;5.10;;;6.80;1.00;;;;;;5117049;28;20176;-39
2023/12/16 03:42:52;;;;;;;6.10;5.37;;;6.80;1.00;;;;;;5116770;28;20481;-41
2023/12/16 03:45:18;;;;;;;5.40;4.90;;;6.80;1.00;;;;;;5116726;28;20437;-40
2023/12/16 03:47:43;;;;;;;6.07;5.10;;;6.80;1.00;;;;;;5117424;28;20179;-42
2023/12/16 03:50:09;;;;;;;5.07;4.67;;;6.80;1.00;;;;;;5115666;28;20499;-41
2023/12/16 03:52:34;;;;;;;5.03;4.53;;;6.70;1.00;;;;;;5115159;28;20254;-42
2023/12/16 03:55:00;;;;;;;5.20;4.70;;;6.70;1.00;;;;;;5118119;28;20220;-40
2023/12/16 03:57:26;;;;;;;6.27;5.67;;;6.70;1.00;;;;;;5117844;28;20207;-43
2023/12/16 03:59:51;;;;;;;5.50;4.77;;;6.70;1.00;;;;;;5117706;28;20182;-41
2023/12/16 04:02:17;;;;;;;5.47;4.93;;;6.70;1.00;;;;;;5117548;28;20176;-44
2023/12/16 04:04:42;;;;;;;6.70;5.10;;;6.70;1.00;;;;;;5118953;28;20203;-40
2023/12/16 04:07:09;;;;;;;5.70;5.00;;;6.40;1.00;;;;;;5118580;28;20179;-40
2023/12/16 04:09:35;;;;;;;5.30;4.80;;;6.70;1.00;;;;;;5118900;28;20191;-40
2023/12/16 04:12:00;;;;;;;5.00;4.53;;;6.60;1.00;;;;;;5100952;28;20823;-43
2023/12/16 04:14:26;;;;;;;5.33;4.83;;;6.70;1.00;;;;;;5100301;28;20252;-42
2023/12/16 04:16:52;;;;;;;5.40;4.90;;;6.70;1.00;;;;;;5118193;28;20176;-41
2023/12/16 04:19:18;;;;;;;6.00;4.97;;;6.70;1.00;;;;;;5116893;28;20294;-41
2023/12/16 04:21:43;;;;;;;5.70;5.10;;;6.70;1.00;;;;;;5117831;28;20449;-40
2023/12/16 04:24:09;;;;;;;6.70;5.27;;;6.70;1.00;;;;;;5118116;28;20206;-40
2023/12/16 04:26:35;;;;;;;7.03;6.33;;;6.70;1.00;;;;;;5117618;28;20191;-45
2023/12/16 04:29:01;;;;;;;6.60;5.20;;;6.70;1.00;;;;;;5116700;28;20274;-43
2023/12/16 04:31:26;;;;;;;5.90;5.30;;;6.70;1.00;;;;;;5117480;28;20664;-44
2023/12/16 04:33:54;;;;;;;6.57;5.97;;;6.70;1.00;;;;;;5117502;28;20262;-40
2023/12/16 04:36:19;;;;;;;5.20;4.70;;;6.70;1.00;;;;;;5117287;28;20259;-42
2023/12/16 04:38:45;;;;;;;5.17;4.67;;;6.70;1.00;;;;;;5099782;28;20478;-41
2023/12/16 04:41:12;;;;;;;6.40;5.80;;;6.80;1.00;;;;;;5116821;28;20180;-41
2023/12/16 04:43:38;;;;;;;6.10;5.50;;;6.80;1.00;;;;;;5116430;28;20803;-42
2023/12/16 04:46:04;;;;;;;6.00;5.47;;;6.80;1.00;;;;;;5116814;28;20430;-48
2023/12/16 04:48:29;;;;;;;6.40;5.17;;;6.80;1.00;;;;;;5117251;28;20494;-41
2023/12/16 04:50:55;;;;;;;6.03;5.20;;;6.80;1.00;;;;;;5116214;28;20266;-41
2023/12/16 04:53:21;;;;;;;9.30;6.00;;;6.80;1.00;;;;;;5116996;28;20480;-43
2023/12/16 04:55:46;;;;;;;5.30;4.53;;;6.80;1.00;;;;;;5117196;28;20251;-40
2023/12/16 04:58:12;;;;;;;6.00;5.40;;;6.80;1.00;;;;;;5117708;28;20507;-41
2023/12/16 05:00:37;;;;;;;6.20;5.60;;;6.80;1.00;;;;;;5116785;28;20176;-42
2023/12/16 05:03:03;;;;;;;5.50;5.00;;;6.80;1.00;;;;;;5098446;28;20198;-41
2023/12/16 05:05:29;;;;;;;6.20;5.60;;;6.80;1.00;;;;;;5117144;28;20175;-42
2023/12/16 05:07:54;;;;;;;6.53;5.00;;;6.80;1.00;;;;;;5117358;28;20516;-42
2023/12/16 05:10:20;;;;;;;6.63;5.50;;;6.80;1.00;;;;;;5116143;28;20195;-42
2023/12/16 05:12:46;;;;;;;6.37;5.53;;;6.80;1.00;;;;;;5116484;28;20202;-41
2023/12/16 05:15:12;;;;;;;6.03;5.43;;;6.80;1.00;;;;;;5115195;28;20442;-43
2023/12/16 05:17:37;;;;;;;5.93;5.43;;;6.80;1.00;;;;;;5114126;28;20194;-40
2023/12/16 05:20:03;;;;;;;7.87;6.20;;;6.80;1.00;;;;;;5113684;28;20228;-43
2023/12/16 05:22:33;;;;;;;6.23;5.63;;;6.80;1.00;;;;;;5114652;28;20176;-40
2023/12/16 05:25:00;;;;;;;6.67;5.83;;;6.80;1.00;;;;;;5115496;28;20452;-43
2023/12/16 05:27:26;;;;;;;7.03;6.33;;;6.80;1.00;;;;;;5115350;28;20479;-41
2023/12/16 05:29:52;;;;;;;7.10;6.40;;;6.80;1.00;;;;;;5115729;28;20429;-41
2023/12/16 05:32:17;;;;;;;6.33;5.73;;;6.80;1.00;;;;;;5115921;28;20195;-41
2023/12/16 05:34:43;;;;;;;6.80;6.10;;;6.80;1.00;;;;;;5114406;28;20211;-44
2023/12/16 05:37:08;;;;;;;7.90;7.10;;;6.80;1.00;;;;;;5097126;28;20213;-40
2023/12/16 05:39:34;;;;;;;7.40;6.70;;;6.70;1.00;;;;;;5116694;28;20421;-43
2023/12/16 05:41:59;;;;;;;8.10;7.40;;;6.70;1.00;;;;;;5100952;28;20248;-40
2023/12/16 05:44:25;;;;;;;7.47;6.70;;;6.70;1.00;;;;;;5099923;28;20458;-41
2023/12/16 05:46:51;;;;;;;7.77;6.97;;;6.70;1.00;;;;;;5117247;28;20248;-41
2023/12/16 05:49:16;;;;;;;7.40;6.67;;;6.70;1.00;;;;;;5119705;28;20523;-40
2023/12/16 05:51:42;;;;;;;6.60;5.87;;;6.70;1.00;;;;;;5119930;28;20172;-42
2023/12/16 05:54:08;;;;;;;7.20;6.50;;;6.70;1.00;;;;;;5120710;28;20276;-40
2023/12/16 05:56:34;;;;;;;7.30;6.60;;;6.70;1.00;;;;;;5121023;28;20191;-40
2023/12/16 05:59:00;;;;;;;7.47;6.77;;;6.70;1.00;;;;;;5121212;28;20396;-40
2023/12/16 06:01:25;;;;;;;5.93;5.43;;;6.70;1.00;;;;;;5120418;28;20818;-44
2023/12/16 06:03:51;;;;;;;7.73;6.57;;;6.70;1.00;;;;;;5120754;28;20738;-43
2023/12/16 06:06:17;;;;;;;7.47;6.73;;;6.70;1.00;;;;;;5120761;28;20195;-40
2023/12/16 06:08:44;;;;;;;7.93;7.17;;;6.70;1.00;;;;;;5102514;28;20413;-41
2023/12/16 06:11:13;;;;;;;10.00;8.13;;;6.60;1.00;;;;;;5102131;28;20192;-43
2023/12/16 06:13:41;;;;;;;7.60;6.80;;;6.60;1.00;;;;;;5119975;28;20572;-40
2023/12/16 06:16:07;;;;;;;7.10;6.40;;;6.60;1.00;;;;;;5118907;28;20465;-41
2023/12/16 06:18:34;;;;;;;7.07;6.37;;;6.70;1.00;;;;;;5118821;28;20569;-41
2023/12/16 06:21:00;;;;;;;8.00;7.13;;;6.60;1.00;;;;;;5118361;28;20413;-40
2023/12/16 06:23:32;;;;;;;8.20;7.40;;;6.60;1.00;;;;;;5119084;28;20845;-40
2023/12/16 06:25:57;;;;;;;6.97;6.37;;;6.60;1.00;;;;;;5118783;28;20184;-39
2023/12/16 06:28:23;;;;;;;8.20;6.50;;;6.60;1.00;;;;;;5118489;28;20777;-40
2023/12/16 06:30:51;;;;;;;7.77;6.97;;;6.60;1.00;;;;;;5117952;28;20191;-40
2023/12/16 06:33:17;;;;;;;7.63;6.60;;;6.60;99.90;;;;;;5117434;28;20589;-41
2023/12/16 06:35:43;;;;;;;6.70;6.10;;;6.50;99.90;;;;;;5116340;28;20418;-38
2023/12/16 06:38:09;;;;;;;6.80;6.10;;;6.50;99.90;;;;;;5115666;28;20244;-40
2023/12/16 06:40:35;;;;;;;6.97;5.87;;;6.50;99.90;;;;;;5118474;28;20722;-45
2023/12/16 06:43:00;;;;;;;7.40;6.13;;;6.50;99.90;;;;;;5118851;28;20437;-40
2023/12/16 06:45:26;;;;;;;5.77;5.27;;;6.50;99.90;;;;;;5117344;28;20222;-40
2023/12/16 06:47:52;;;;;;;7.33;6.10;;;6.50;99.90;;;;;;5118414;28;20176;-39
2023/12/16 06:50:17;;;;;;;6.43;5.70;;;6.40;99.90;;;;;;5117905;28;20176;-40
2023/12/16 06:52:43;;;;;;;7.30;6.60;;;6.40;99.90;;;;;;5117810;28;20211;-40
2023/12/16 06:55:08;;;;;;;6.67;6.07;;;6.40;99.90;;;;;;5117627;28;20239;-43
2023/12/16 06:57:34;;;;;;;7.10;6.40;;;6.40;99.90;;;;;;5116590;28;20496;-43
2023/12/16 07:00:00;;;;;;;6.77;6.10;;;6.40;99.90;;;;;;5117151;28;20199;-39
2023/12/16 07:02:25;;;;;;;7.63;6.80;;;6.40;99.90;;;;;;5115550;28;20544;-39
2023/12/16 07:04:51;;;;;;;6.63;6.03;;;6.40;99.90;;;;;;5117554;28;20184;-44
2023/12/16 07:07:17;;;;;;;8.63;7.70;;;6.40;99.90;;;;;;5118624;28;20184;-42
2023/12/16 07:09:43;;;;;;;9.70;6.63;;;6.40;99.90;;;;;;5115724;28;20452;-40
2023/12/16 07:12:09;;;;;;;7.50;6.90;;;6.40;99.90;;;;;;5116486;28;20562;-39
2023/12/16 07:14:34;;;;;;;7.87;6.80;;;6.40;99.90;;;;;;5118671;28;20417;-41
2023/12/16 07:17:00;;;;;;;7.77;7.07;;;6.40;99.90;;;;;;5118414;28;20202;-40
2023/12/16 07:19:30;;;;;;;6.70;6.00;;;6.40;99.90;;;;;;5119362;28;20263;-44
2023/12/16 07:21:55;;;;;;;7.80;7.10;;;6.40;99.90;;;;;;5118190;28;20428;-39
2023/12/16 07:24:21;;;;;;;7.70;6.63;;;6.40;99.90;;;;;;5117920;28;20437;-46
2023/12/16 07:26:47;;;;;;;7.10;6.40;;;6.40;99.90;;;;;;5118345;28;20167;-41
2023/12/16 07:29:12;;;;;;;6.60;5.90;;;6.40;99.90;;;;;;5116421;28;20593;-41
2023/12/16 07:31:38;;;;;;;7.00;6.27;;;6.40;99.90;;;;;;5115673;28;20183;-40
2023/12/16 07:34:04;;;;;;;8.00;5.53;;;6.40;99.90;;;;;;5116116;28;20200;-40
2023/12/16 07:36:29;;;;;;;6.80;5.67;;;6.50;99.90;;;;;;5112470;28;20733;-40
2023/12/16 07:38:57;;;;;;;6.10;5.60;;;6.50;99.90;;;;;;5115000;28;20174;-40
2023/12/16 07:41:23;;;;;;;7.60;6.00;;;6.50;99.90;;;;;;5115852;28;20260;-43
2023/12/16 07:43:49;;;;;;;6.27;5.67;;;6.50;99.90;;;;;;5117117;28;20520;-40
2023/12/16 07:46:15;;;;;;;7.00;6.30;;;6.60;99.90;;;;;;5098800;28;20433;-40
2023/12/16 07:48:42;;;;;;;7.17;6.37;;;6.60;99.90;;;;;;5115609;28;20202;-41
2023/12/16 07:51:17;;;;;;;6.57;5.80;;;6.70;99.90;;;;;;5081424;28;20414;-42
2023/12/16 07:53:48;;;;;;;6.83;6.10;;;6.70;99.90;;;;;;5117120;28;20848;-41
2023/12/16 07:56:22;;;;;;;6.60;5.90;;;6.70;99.90;;;;;;5117355;28;20894;-42
2023/12/16 07:58:48;;;;;;;6.40;5.80;;;6.80;99.90;;;;;;5098240;28;20465;-41
2023/12/16 08:01:14;;;;;;;6.10;5.50;;;6.90;99.90;;;;;;5100125;28;20445;-40
2023/12/16 08:03:40;;;;;;;5.83;5.33;;;6.90;99.90;;;;;;5118045;28;20426;-43
2023/12/16 08:06:06;;;;;;;6.13;5.53;;;7.00;83.90;;;;;;5117424;28;20649;-41
2023/12/16 08:08:32;;;;;;;6.37;5.77;;;7.10;34.80;;;;;;5117269;28;20819;-40
2023/12/16 08:10:57;;;;;;;6.30;5.70;;;7.10;1.00;;;;;;5117514;28;20444;-41
2023/12/16 08:13:23;;;;;;;5.73;5.23;;;7.20;1.00;;;;;;5116999;28;20466;-41
2023/12/16 08:15:48;;;;;;;5.20;4.70;;;7.20;1.00;;;;;;5116695;28;20188;-41
2023/12/16 08:18:15;;;;;;;5.20;4.70;;;7.30;1.00;;;;;;5117195;28;20190;-42
2023/12/16 08:20:41;;;;;;;6.40;5.70;;;7.40;1.00;;;;;;5114689;28;20583;-41
2023/12/16 08:23:08;;;;;;;5.03;4.63;;;7.40;1.00;;;;;;5111917;28;20433;-40
2023/12/16 08:25:35;;;;;;;6.17;5.10;;;7.40;1.00;;;;;;5112912;28;20632;-52
2023/12/16 08:28:01;;;;;;;5.33;4.83;;;7.40;1.00;;;;;;5112682;28;20432;-41
2023/12/16 08:30:26;;;;;;;4.80;4.40;;;7.40;1.00;;;;;;5111008;28;20859;-40
2023/12/16 08:32:53;;;;;;;4.97;4.47;;;7.50;1.00;;;;;;5111881;28;20480;-39
2023/12/16 08:35:21;;;;;;;5.40;4.57;;;7.50;99.90;;;;;;5113227;28;20505;-40
2023/12/16 08:37:47;;;;;;;4.47;4.07;;;7.50;99.90;;;;;;5114362;28;20425;-42
2023/12/16 08:40:12;;;;;;;4.50;4.10;;;7.60;99.90;;;;;;5114425;28;20468;-40
2023/12/16 08:42:42;;;;;;;4.77;4.37;;;7.60;99.90;;;;;;5115692;28;20245;-44
2023/12/16 08:45:09;;;;;;;4.23;3.83;;;7.60;99.90;;;;;;5115195;28;20271;-41
2023/12/16 08:47:34;;;;;;;4.27;3.87;;;7.70;99.90;;;;;;5098511;28;20915;-43
2023/12/16 08:50:00;;;;;;;4.83;4.43;;;7.70;99.90;;;;;;5114288;28;20461;-40
2023/12/16 08:52:27;;;;;;;4.77;4.37;;;7.80;89.50;;;;;;5097511;28;20207;-40
2023/12/16 08:54:53;;;;;;;5.20;4.70;;;7.80;39.30;;;;;;5095587;28;20273;-41
2023/12/16 08:57:18;;;;;;;5.33;4.50;;;7.80;6.30;;;;;;5113556;28;20457;-41
2023/12/16 08:59:44;;;;;;;5.00;4.50;;;7.90;1.00;;;;;;5078288;28;20414;-42
2023/12/16 09:02:10;;;;;;;5.40;4.90;;;7.90;1.00;;;;;;5095996;28;20187;-41
2023/12/16 09:04:35;;;;;;;5.17;4.67;;;7.90;1.00;;;;;;5114022;28;20187;-42
2023/12/16 09:07:01;;;;;;;6.20;4.73;;;7.90;1.00;;;;;;5115322;28;20601;-41
2023/12/16 09:09:27;;;;;;;4.93;4.53;;;7.90;1.00;;;;;;5099445;28;20223;-41
2023/12/16 09:11:53;;;;;;;5.73;5.20;;;8.00;1.00;;;;;;5098699;28;20781;-41
2023/12/16 09:14:19;;;;;;;5.00;4.30;;;8.00;1.00;;;;;;5115258;28;20564;-42
2023/12/16 09:16:44;;;;;;;5.60;5.10;;;8.10;1.00;;;;;;5115164;28;20190;-43
2023/12/16 09:19:11;;;;;;;5.43;4.20;;;8.10;1.00;;;;;;5114173;28;20187;-45
2023/12/16 09:21:38;;;;;;;5.13;4.70;;;8.10;1.00;;;;;;5110074;28;20183;-42
2023/12/16 09:24:05;;;;;;;5.23;4.73;;;8.20;1.00;;;;;;5113224;28;20856;-42
2023/12/16 09:26:31;;;;;;;5.10;4.60;;;8.30;99.90;;;;;;5112850;28;20779;-45
2023/12/16 09:28:59;;;;;;;6.20;5.03;;;8.40;99.90;;;;;;5112599;28;20430;-42
2023/12/16 09:31:24;;;;;;;4.37;4.00;;;8.40;99.90;;;;;;5095172;28;20429;-42
2023/12/16 09:33:50;;;;;;;4.80;4.33;;;8.50;70.70;;;;;;5112221;28;20538;-42
2023/12/16 09:36:18;;;;;;;5.77;4.27;;;8.60;1.00;;;;;;5114364;28;20195;-42
2023/12/16 09:38:46;;;;;;;5.13;4.60;;;8.70;1.00;;;;;;5114760;28;20179;-41
2023/12/16 09:41:32;;;;;;;4.83;4.43;;;8.80;1.00;;;;;;5096905;28;20433;-41
2023/12/16 09:43:58;;;;;;;4.50;4.10;;;8.80;1.00;;;;;;5114975;28;20203;-42
2023/12/16 09:46:32;;;;;;;4.70;4.30;;;8.90;99.90;;;;;;5097255;28;20541;-40
2023/12/16 09:48:59;;;;;;;5.57;5.00;;;9.00;99.90;;;;;;5096341;28;20429;-44
2023/12/16 09:51:26;;;;;;;5.90;5.40;;;9.00;7.50;;;;;;5095720;28;20434;-41
2023/12/16 09:53:52;;;;;;;4.90;4.40;;;9.00;1.00;;;;;;5096802;28;20909;-48
2023/12/16 09:56:18;;;;;;;5.33;4.83;;;9.10;1.00;;;;;;5115526;28;20461;-44
2023/12/16 09:58:45;;;;;;;5.50;5.00;;;9.20;1.00;;;;;;5115314;28;20513;-40
2023/12/16 10:01:11;;;;;;;4.90;4.47;;;9.20;99.90;;;;;;5115160;28;20194;-44
2023/12/16 10:03:38;;;;;;;5.90;5.40;;;9.30;99.90;;;;;;5113680;28;20421;-41
2023/12/16 10:06:06;;;;;;;5.60;5.10;;;9.30;99.90;;;;;;5115691;28;20570;-43
2023/12/16 10:08:33;;;;;;;5.70;4.87;;;9.40;99.90;;;;;;5116531;28;20481;-40
2023/12/16 10:10:59;;;;;;;6.13;4.90;;;9.40;1.00;;;;;;5114898;28;20453;-43
2023/12/16 10:13:30;;;;;;;6.40;5.60;;;9.50;1.00;;;;;;5114341;28;20943;-41
2023/12/16 10:15:56;;;;;;;5.47;4.97;;;9.50;1.00;;;;;;5115264;28;20421;-41
2023/12/16 10:18:21;;;;;;;6.60;6.00;;;9.60;1.00;;;;;;5115408;28;20758;-42
2023/12/16 10:20:47;;;;;;;5.93;5.43;;;9.70;99.90;;;;;;5114519;28;20410;-42
2023/12/16 10:23:13;;;;;;;4.87;4.37;;;9.90;99.90;;;;;;5112558;28;20442;-45
2023/12/16 10:25:41;;;;;;;5.33;4.83;;;10.00;15.80;;;;;;5111843;28;20435;-40
2023/12/16 10:28:07;;;;;;;5.33;4.87;;;10.10;1.00;;;;;;5115333;28;20190;-40
2023/12/16 10:30:33;;;;;;;5.60;5.10;;;10.20;99.90;;;;;;5116634;28;20417;-40
2023/12/16 10:33:06;;;;;;;8.50;5.10;;;10.40;99.90;;;;;;5116735;28;20898;-42
2023/12/16 10:35:32;;;;;;;5.43;4.50;;;10.50;99.90;;;;;;5100380;28;20175;-43
2023/12/16 10:37:58;;;;;;;6.07;4.40;;;10.60;8.90;;;;;;5115719;28;20707;-42
2023/12/16 10:40:24;;;;;;;9.97;3.70;;;10.70;1.00;;;;;;5119293;28;20638;-47
2023/12/16 10:42:50;;;;;;;6.23;3.77;;;11.10;1.00;;;;;;5117309;28;20199;-44
2023/12/16 10:45:15;;;;;;;6.43;3.73;;;12.00;1.00;;;;;;5099199;28;20917;-43
2023/12/16 10:47:42;;;;;;;5.83;3.30;;;12.90;1.00;;;;;;5119715;28;20557;-45
2023/12/16 10:50:09;;;;;;;11.67;3.90;;;13.60;1.00;;;;;;5099207;28;20203;-43
2023/12/16 10:52:40;;;;;;;7.67;4.07;;;14.20;99.90;;;;;;5100120;28;20469;-45
2023/12/16 10:55:07;;;;;;;4.10;2.80;;;14.80;99.90;;;;;;5083249;28;20564;-42
2023/12/16 10:57:48;;;;;;;4.60;3.33;;;15.30;1.00;;;;;;5099866;28;20803;-45
2023/12/16 11:00:24;;;;;;;5.97;3.67;;;15.70;1.00;;;;;;5117218;28;20433;-44
2023/12/16 11:03:12;;;;;;;4.80;3.57;;;16.10;99.90;;;;;;5097192;28;20429;-46
2023/12/16 11:05:43;;;;;;;3.80;3.20;;;16.50;1.00;;;;;;5078875;28;20437;-45
2023/12/16 11:08:09;;;;;;;6.47;3.60;;;16.90;99.90;;;;;;5113188;28;20429;-42
2023/12/16 11:10:35;;;;;;;6.40;4.50;;;17.20;1.00;;;;;;5115552;28;20831;-42
2023/12/16 11:13:02;;;;;;;6.37;5.47;;;17.40;1.60;;;;;;5115599;28;20464;-41
2023/12/16 11:15:30;;;;;;;5.97;5.47;;;17.10;99.90;;;;;;5116034;28;20436;-42
2023/12/16 11:18:07;;;;;;;6.80;6.10;;;16.60;1.00;;;;;;5098178;28;20536;-41
2023/12/16 11:20:52;;;;;;;9.10;8.30;;;16.10;1.00;;;;;;5099675;28;20533;-45
2023/12/16 11:23:18;;;;;;;11.63;10.53;;;15.60;1.00;;;;;;5100399;28;20421;-41
2023/12/16 11:25:46;;;;;;;9.80;8.80;;;15.30;1.00;;;;;;5118292;28;20554;-42
2023/12/16 11:28:14;;;;;;;12.07;10.97;;;15.20;1.00;;;;;;5101173;28;20495;-42
2023/12/16 11:30:40;;;;;;;11.70;9.77;;;15.00;1.00;;;;;;5119024;28;20701;-41
2023/12/16 11:33:06;;;;;;;8.23;7.40;;;14.90;1.00;;;;;;5118838;28;20461;-39
2023/12/16 11:35:35;;;;;;;7.90;6.13;;;14.80;1.00;;;;;;5083173;28;20455;-39
2023/12/16 11:38:01;;;;;;;23.63;21.67;;;14.80;1.00;;;;;;5096849;28;20633;-43
2023/12/16 11:40:41;;;;;;;20.33;18.63;;;14.60;1.00;;;;;;5096095;28;20535;-46
2023/12/16 11:43:07;;;;;;;14.47;13.23;;;14.70;1.00;;;;;;5115661;28;20405;-42
2023/12/16 11:45:44;;;;;;;10.60;9.60;;;14.60;1.00;;;;;;5095428;28;20432;-44
2023/12/16 11:48:11;;;;;;;10.10;8.73;;;14.60;1.00;;;;;;5114940;28;20711;-43
2023/12/16 11:50:39;;;;;;;8.90;8.00;;;14.70;1.00;;;;;;5098753;28;20422;-40
2023/12/16 11:53:07;;;;;;;13.90;7.43;;;14.80;1.00;;;;;;5099650;28;20465;-40
2023/12/16 11:55:32;;;;;;;8.37;5.47;;;14.80;1.00;;;;;;5099163;28;20461;-40
2023/12/16 11:57:59;;;;;;;9.13;8.33;;;15.00;1.00;;;;;;5099740;28;20474;-43
2023/12/16 12:00:24;;;;;;;8.23;7.40;;;15.40;1.00;;;;;;5116776;28;20198;-40
2023/12/16 12:02:54;;;;;;;7.77;7.07;;;15.70;1.00;;;;;;5116331;28;20437;-42
2023/12/16 12:05:23;;;;;;;8.97;6.80;;;16.10;1.00;;;;;;5098813;28;20180;-42
2023/12/16 12:07:52;;;;;;;8.80;5.40;;;16.40;1.00;;;;;;5113969;28;20510;-42
2023/12/16 12:10:18;;;;;;;6.40;5.30;;;16.70;1.00;;;;;;5096431;28;20425;-44
2023/12/16 12:12:44;;;;;;;7.00;5.00;;;16.80;1.00;;;;;;5114927;28;20467;-41
2023/12/16 12:15:10;;;;;;;6.03;5.20;;;17.00;1.00;;;;;;5115407;28;20247;-44
2023/12/16 12:17:38;;;;;;;7.10;4.60;;;17.10;1.00;;;;;;5116712;28;20282;-41
2023/12/16 12:20:04;;;;;;;6.87;4.37;;;17.20;1.00;;;;;;5114498;28;20429;-42
2023/12/16 12:22:31;;;;;;;5.63;4.63;;;17.50;1.00;;;;;;5116478;28;20548;-40
2023/12/16 12:24:57;;;;;;;5.33;4.47;;;18.20;1.00;;;;;;5096908;28;20406;-41
2023/12/16 12:27:22;;;;;;;5.00;4.30;;;19.20;1.00;;;;;;5116408;28;20410;-41
2023/12/16 12:30:08;;;;;;;5.87;4.20;;;20.70;1.00;;;;;;5096041;28;20843;-43
2023/12/16 12:32:33;;;;;;;4.83;4.00;;;22.70;1.00;;;;;;5096806;28;20759;-45
2023/12/16 12:35:01;;;;;;;4.77;4.27;;;24.60;1.00;;;;;;5078773;28;20433;-41
2023/12/16 12:37:36;;;;;;;5.27;3.67;;;26.00;1.00;;;;;;5095304;28;20187;-41
2023/12/16 12:40:12;;;;;;;4.53;4.00;;;27.30;1.00;;;;;;5112977;28;20405;-41
2023/12/16 12:42:54;;;;;;;5.00;3.87;;;28.50;1.00;;;;;;5111397;28;20743;-47
2023/12/16 12:45:33;;;;;;;4.70;4.23;;;29.30;1.00;;;;;;5095778;28;20413;-40
2023/12/16 12:48:11;;;;;;;7.90;3.77;;;29.50;1.00;;;;;;5112544;28;20417;-41
2023/12/16 12:50:37;;;;;;;4.33;3.93;;;29.90;1.00;;;;;;5113652;28;20476;-42
2023/12/16 12:53:19;;;;;;;4.20;3.60;;;30.10;1.00;;;;;;5095321;28;20522;-42
2023/12/16 12:55:45;;;;;;;4.90;3.80;;;30.10;1.00;;;;;;5114056;28;20546;-42
2023/12/16 12:58:12;;;;;;;4.20;3.57;;;30.70;1.00;;;;;;5080509;28;20444;-42
2023/12/16 13:00:38;;;;;;;4.73;3.70;;;31.30;1.00;;;;;;5097096;28;20441;-43